sensor_id;sensor_type;location;lat;lon;timestamp;P1;durP1;ratioP1;P2;durP2;ratioP2
3022;SDS011;1521;53.584;9.938;2023-09-12T00:02:04;108.37;;;62.97;;
3022;SDS011;1521;53.584;9.938;2023-09-12T00:04:29;104.73;;;57.27;;
3022;SDS011;1521;53.584;9.938;2023-09-12T00:06:55;103.73;;;57.97;;
3022;SDS011;1521;53.584;9.938;2023-09-12T00:09:21;84.93;;;53.87;;
3022;SDS011;1521;53.584;9.938;2023-09-12T00:11:46;87.57;;;53.50;;
3022;SDS011;1521;53.584;9.938;2023-09-12T00:14:15;88.63;;;51.43;;
3022;SDS011;1521;53.584;9.938;2023-09-12T00:16:42;81.63;;;48.77;;
3022;SDS011;1521;53.584;9.938;2023-09-12T00:19:08;84.43;;;48.70;;
3022;SDS011;1521;53.584;9.938;2023-09-12T00:21:33;77.00;;;45.50;;
3022;SDS011;1521;53.584;9.938;2023-09-12T00:23:59;85.67;;;49.87;;
3022;SDS011;1521;53.584;9.938;2023-09-12T00:26:24;70.93;;;44.93;;
3022;SDS011;1521;53.584;9.938;2023-09-12T00:28:50;75.50;;;44.00;;
3022;SDS011;1521;53.584;9.938;2023-09-12T00:31:15;74.73;;;43.20;;
3022;SDS011;1521;53.584;9.938;2023-09-12T00:33:41;67.87;;;42.27;;
3022;SDS011;1521;53.584;9.938;2023-09-12T00:36:07;71.57;;;41.90;;
3022;SDS011;1521;53.584;9.938;2023-09-12T00:38:32;63.13;;;40.30;;
3022;SDS011;1521;53.584;9.938;2023-09-12T00:40:58;63.60;;;40.03;;
3022;SDS011;1521;53.584;9.938;2023-09-12T00:43:23;64.80;;;38.90;;
3022;SDS011;1521;53.584;9.938;2023-09-12T00:45:49;67.17;;;40.70;;
3022;SDS011;1521;53.584;9.938;2023-09-12T00:48:15;60.17;;;38.03;;
3022;SDS011;1521;53.584;9.938;2023-09-12T00:50:41;65.63;;;38.43;;
3022;SDS011;1521;53.584;9.938;2023-09-12T00:53:08;63.80;;;39.00;;
3022;SDS011;1521;53.584;9.938;2023-09-12T00:55:34;58.10;;;35.97;;
3022;SDS011;1521;53.584;9.938;2023-09-12T00:58:04;60.50;;;39.17;;
3022;SDS011;1521;53.584;9.938;2023-09-12T01:00:30;66.07;;;38.03;;
3022;SDS011;1521;53.584;9.938;2023-09-12T01:02:56;60.03;;;37.60;;
3022;SDS011;1521;53.584;9.938;2023-09-12T01:05:23;64.87;;;38.00;;
3022;SDS011;1521;53.584;9.938;2023-09-12T01:07:49;58.63;;;37.60;;
3022;SDS011;1521;53.584;9.938;2023-09-12T01:10:15;62.33;;;37.97;;
3022;SDS011;1521;53.584;9.938;2023-09-12T01:12:40;53.30;;;34.17;;
3022;SDS011;1521;53.584;9.938;2023-09-12T01:15:06;61.83;;;37.90;;
3022;SDS011;1521;53.584;9.938;2023-09-12T01:17:38;55.87;;;35.80;;
3022;SDS011;1521;53.584;9.938;2023-09-12T01:20:05;57.93;;;38.93;;
3022;SDS011;1521;53.584;9.938;2023-09-12T01:22:50;54.03;;;38.20;;
3022;SDS011;1521;53.584;9.938;2023-09-12T01:28:14;59.00;;;35.87;;
3022;SDS011;1521;53.584;9.938;2023-09-12T01:30:41;58.43;;;36.70;;
3022;SDS011;1521;53.584;9.938;2023-09-12T01:33:08;63.27;;;39.40;;
3022;SDS011;1521;53.584;9.938;2023-09-12T01:35:35;50.90;;;34.70;;
3022;SDS011;1521;53.584;9.938;2023-09-12T01:38:00;58.30;;;33.90;;
3022;SDS011;1521;53.584;9.938;2023-09-12T01:40:33;51.13;;;32.70;;
3022;SDS011;1521;53.584;9.938;2023-09-12T01:43:04;57.93;;;36.23;;
3022;SDS011;1521;53.584;9.938;2023-09-12T01:45:32;59.40;;;36.03;;
3022;SDS011;1521;53.584;9.938;2023-09-12T01:47:58;54.57;;;34.50;;
3022;SDS011;1521;53.584;9.938;2023-09-12T01:50:25;59.77;;;37.40;;
3022;SDS011;1521;53.584;9.938;2023-09-12T01:52:53;46.87;;;34.20;;
3022;SDS011;1521;53.584;9.938;2023-09-12T01:55:19;58.00;;;38.40;;
3022;SDS011;1521;53.584;9.938;2023-09-12T01:57:46;57.03;;;35.80;;
3022;SDS011;1521;53.584;9.938;2023-09-12T02:00:12;60.67;;;33.50;;
3022;SDS011;1521;53.584;9.938;2023-09-12T02:02:38;55.07;;;34.40;;
3022;SDS011;1521;53.584;9.938;2023-09-12T02:05:09;55.70;;;33.40;;
3022;SDS011;1521;53.584;9.938;2023-09-12T02:07:43;63.60;;;38.17;;
3022;SDS011;1521;53.584;9.938;2023-09-12T02:10:09;58.87;;;37.57;;
3022;SDS011;1521;53.584;9.938;2023-09-12T02:12:35;71.33;;;40.27;;
3022;SDS011;1521;53.584;9.938;2023-09-12T02:15:12;66.93;;;41.73;;
3022;SDS011;1521;53.584;9.938;2023-09-12T02:17:41;75.43;;;40.97;;
3022;SDS011;1521;53.584;9.938;2023-09-12T02:20:07;57.77;;;35.67;;
3022;SDS011;1521;53.584;9.938;2023-09-12T02:22:33;61.37;;;40.07;;
3022;SDS011;1521;53.584;9.938;2023-09-12T02:24:59;57.87;;;36.73;;
3022;SDS011;1521;53.584;9.938;2023-09-12T02:27:25;60.90;;;39.17;;
3022;SDS011;1521;53.584;9.938;2023-09-12T02:29:50;56.10;;;38.00;;
3022;SDS011;1521;53.584;9.938;2023-09-12T02:32:16;66.90;;;37.77;;
3022;SDS011;1521;53.584;9.938;2023-09-12T02:34:41;64.17;;;38.47;;
3022;SDS011;1521;53.584;9.938;2023-09-12T02:37:07;59.10;;;36.80;;
3022;SDS011;1521;53.584;9.938;2023-09-12T02:39:32;69.70;;;40.13;;
3022;SDS011;1521;53.584;9.938;2023-09-12T02:41:58;61.37;;;39.70;;
3022;SDS011;1521;53.584;9.938;2023-09-12T02:44:23;61.43;;;40.87;;
3022;SDS011;1521;53.584;9.938;2023-09-12T02:46:50;60.57;;;38.07;;
3022;SDS011;1521;53.584;9.938;2023-09-12T02:49:15;55.80;;;37.90;;
3022;SDS011;1521;53.584;9.938;2023-09-12T02:51:41;62.70;;;36.00;;
3022;SDS011;1521;53.584;9.938;2023-09-12T02:54:07;57.20;;;38.07;;
3022;SDS011;1521;53.584;9.938;2023-09-12T02:56:32;66.23;;;41.23;;
3022;SDS011;1521;53.584;9.938;2023-09-12T02:58:58;66.80;;;41.50;;
3022;SDS011;1521;53.584;9.938;2023-09-12T03:01:23;68.20;;;41.90;;
3022;SDS011;1521;53.584;9.938;2023-09-12T03:03:52;63.20;;;39.67;;
3022;SDS011;1521;53.584;9.938;2023-09-12T03:06:18;73.33;;;42.17;;
3022;SDS011;1521;53.584;9.938;2023-09-12T03:08:44;76.67;;;46.30;;
3022;SDS011;1521;53.584;9.938;2023-09-12T03:11:11;78.53;;;44.50;;
3022;SDS011;1521;53.584;9.938;2023-09-12T03:13:37;78.13;;;44.67;;
3022;SDS011;1521;53.584;9.938;2023-09-12T03:16:04;76.17;;;46.27;;
3022;SDS011;1521;53.584;9.938;2023-09-12T03:18:30;84.37;;;48.20;;
3022;SDS011;1521;53.584;9.938;2023-09-12T03:20:55;81.47;;;47.70;;
3022;SDS011;1521;53.584;9.938;2023-09-12T03:23:21;81.03;;;49.90;;
3022;SDS011;1521;53.584;9.938;2023-09-12T03:25:46;77.37;;;47.07;;
3022;SDS011;1521;53.584;9.938;2023-09-12T03:28:12;90.13;;;51.40;;
3022;SDS011;1521;53.584;9.938;2023-09-12T03:30:38;72.53;;;45.83;;
3022;SDS011;1521;53.584;9.938;2023-09-12T03:33:04;85.47;;;47.57;;
3022;SDS011;1521;53.584;9.938;2023-09-12T03:35:33;76.70;;;46.97;;
3022;SDS011;1521;53.584;9.938;2023-09-12T03:37:59;88.43;;;48.07;;
3022;SDS011;1521;53.584;9.938;2023-09-12T03:40:27;79.97;;;47.43;;
3022;SDS011;1521;53.584;9.938;2023-09-12T03:42:54;94.37;;;51.40;;
3022;SDS011;1521;53.584;9.938;2023-09-12T03:45:20;79.07;;;48.93;;
3022;SDS011;1521;53.584;9.938;2023-09-12T03:47:45;87.57;;;49.07;;
3022;SDS011;1521;53.584;9.938;2023-09-12T03:50:12;88.60;;;48.97;;
3022;SDS011;1521;53.584;9.938;2023-09-12T03:52:38;85.60;;;47.13;;
3022;SDS011;1521;53.584;9.938;2023-09-12T03:55:04;74.30;;;46.00;;
3022;SDS011;1521;53.584;9.938;2023-09-12T03:57:30;80.60;;;47.27;;
3022;SDS011;1521;53.584;9.938;2023-09-12T03:59:56;85.70;;;49.20;;
3022;SDS011;1521;53.584;9.938;2023-09-12T04:02:22;76.33;;;46.27;;
3022;SDS011;1521;53.584;9.938;2023-09-12T04:04:48;94.23;;;52.37;;
3022;SDS011;1521;53.584;9.938;2023-09-12T04:07:13;80.40;;;46.00;;
3022;SDS011;1521;53.584;9.938;2023-09-12T04:09:39;80.63;;;47.40;;
3022;SDS011;1521;53.584;9.938;2023-09-12T04:12:04;83.83;;;48.20;;
3022;SDS011;1521;53.584;9.938;2023-09-12T04:14:31;88.93;;;51.83;;
3022;SDS011;1521;53.584;9.938;2023-09-12T04:16:57;91.03;;;48.57;;
3022;SDS011;1521;53.584;9.938;2023-09-12T04:19:23;85.00;;;49.37;;
3022;SDS011;1521;53.584;9.938;2023-09-12T04:21:49;81.90;;;46.03;;
3022;SDS011;1521;53.584;9.938;2023-09-12T04:24:15;96.70;;;53.67;;
3022;SDS011;1521;53.584;9.938;2023-09-12T04:26:42;83.10;;;49.27;;
3022;SDS011;1521;53.584;9.938;2023-09-12T04:29:09;94.67;;;52.17;;
3022;SDS011;1521;53.584;9.938;2023-09-12T04:31:34;88.50;;;50.30;;
3022;SDS011;1521;53.584;9.938;2023-09-12T04:34:00;90.00;;;49.93;;
3022;SDS011;1521;53.584;9.938;2023-09-12T04:36:26;84.27;;;49.10;;
3022;SDS011;1521;53.584;9.938;2023-09-12T04:38:51;93.93;;;49.83;;
3022;SDS011;1521;53.584;9.938;2023-09-12T04:41:17;101.73;;;54.07;;
3022;SDS011;1521;53.584;9.938;2023-09-12T04:43:43;104.07;;;54.27;;
3022;SDS011;1521;53.584;9.938;2023-09-12T04:46:11;105.13;;;54.30;;
3022;SDS011;1521;53.584;9.938;2023-09-12T04:48:38;114.30;;;56.30;;
3022;SDS011;1521;53.584;9.938;2023-09-12T04:51:04;114.33;;;60.77;;
3022;SDS011;1521;53.584;9.938;2023-09-12T04:53:29;110.70;;;57.27;;
3022;SDS011;1521;53.584;9.938;2023-09-12T04:56:01;111.77;;;57.37;;
3022;SDS011;1521;53.584;9.938;2023-09-12T04:58:28;114.20;;;57.70;;
3022;SDS011;1521;53.584;9.938;2023-09-12T05:00:54;93.60;;;52.70;;
3022;SDS011;1521;53.584;9.938;2023-09-12T05:03:20;116.70;;;56.13;;
3022;SDS011;1521;53.584;9.938;2023-09-12T05:05:46;127.70;;;59.20;;
3022;SDS011;1521;53.584;9.938;2023-09-12T05:08:13;121.13;;;56.10;;
3022;SDS011;1521;53.584;9.938;2023-09-12T05:10:39;117.67;;;55.60;;
3022;SDS011;1521;53.584;9.938;2023-09-12T05:13:04;107.73;;;54.73;;
3022;SDS011;1521;53.584;9.938;2023-09-12T05:15:30;117.30;;;60.47;;
3022;SDS011;1521;53.584;9.938;2023-09-12T05:17:56;113.47;;;56.40;;
3022;SDS011;1521;53.584;9.938;2023-09-12T05:20:21;100.13;;;53.17;;
3022;SDS011;1521;53.584;9.938;2023-09-12T05:22:47;110.63;;;54.83;;
3022;SDS011;1521;53.584;9.938;2023-09-12T05:25:13;121.33;;;56.13;;
3022;SDS011;1521;53.584;9.938;2023-09-12T05:27:38;110.00;;;53.87;;
3022;SDS011;1521;53.584;9.938;2023-09-12T05:30:04;124.03;;;58.80;;
3022;SDS011;1521;53.584;9.938;2023-09-12T05:32:30;113.97;;;55.33;;
3022;SDS011;1521;53.584;9.938;2023-09-12T05:34:56;115.93;;;58.03;;
3022;SDS011;1521;53.584;9.938;2023-09-12T05:37:21;97.97;;;51.80;;
3022;SDS011;1521;53.584;9.938;2023-09-12T05:39:47;115.13;;;56.57;;
3022;SDS011;1521;53.584;9.938;2023-09-12T05:42:12;92.73;;;47.37;;
3022;SDS011;1521;53.584;9.938;2023-09-12T05:44:40;111.57;;;51.20;;
3022;SDS011;1521;53.584;9.938;2023-09-12T05:47:07;117.63;;;52.37;;
3022;SDS011;1521;53.584;9.938;2023-09-12T05:49:33;101.03;;;54.10;;
3022;SDS011;1521;53.584;9.938;2023-09-12T05:51:59;121.20;;;55.77;;
3022;SDS011;1521;53.584;9.938;2023-09-12T05:54:24;127.17;;;58.00;;
3022;SDS011;1521;53.584;9.938;2023-09-12T05:56:50;112.73;;;55.00;;
3022;SDS011;1521;53.584;9.938;2023-09-12T05:59:17;111.07;;;52.90;;
3022;SDS011;1521;53.584;9.938;2023-09-12T06:01:43;126.27;;;59.80;;
3022;SDS011;1521;53.584;9.938;2023-09-12T06:04:08;114.37;;;54.23;;
3022;SDS011;1521;53.584;9.938;2023-09-12T06:06:34;102.27;;;51.50;;
3022;SDS011;1521;53.584;9.938;2023-09-12T06:09:00;111.50;;;55.13;;
3022;SDS011;1521;53.584;9.938;2023-09-12T06:11:25;110.13;;;53.87;;
3022;SDS011;1521;53.584;9.938;2023-09-12T06:13:51;112.30;;;54.10;;
3022;SDS011;1521;53.584;9.938;2023-09-12T06:16:16;92.70;;;47.57;;
3022;SDS011;1521;53.584;9.938;2023-09-12T06:18:42;100.23;;;49.27;;
3022;SDS011;1521;53.584;9.938;2023-09-12T06:21:07;111.53;;;54.43;;
3022;SDS011;1521;53.584;9.938;2023-09-12T06:23:33;116.43;;;54.57;;
3022;SDS011;1521;53.584;9.938;2023-09-12T06:25:59;102.03;;;49.13;;
3022;SDS011;1521;53.584;9.938;2023-09-12T06:28:25;117.50;;;55.83;;
3022;SDS011;1521;53.584;9.938;2023-09-12T06:30:51;109.50;;;54.07;;
3022;SDS011;1521;53.584;9.938;2023-09-12T06:33:17;98.73;;;51.30;;
3022;SDS011;1521;53.584;9.938;2023-09-12T06:35:43;104.87;;;51.60;;
3022;SDS011;1521;53.584;9.938;2023-09-12T06:38:08;96.23;;;46.93;;
3022;SDS011;1521;53.584;9.938;2023-09-12T06:40:34;98.43;;;50.63;;
3022;SDS011;1521;53.584;9.938;2023-09-12T06:42:59;95.67;;;47.80;;
3022;SDS011;1521;53.584;9.938;2023-09-12T06:45:25;97.30;;;50.73;;
3022;SDS011;1521;53.584;9.938;2023-09-12T06:47:50;97.33;;;51.50;;
3022;SDS011;1521;53.584;9.938;2023-09-12T06:50:16;106.70;;;54.77;;
3022;SDS011;1521;53.584;9.938;2023-09-12T06:52:42;106.97;;;53.73;;
3022;SDS011;1521;53.584;9.938;2023-09-12T06:55:07;88.37;;;47.53;;
3022;SDS011;1521;53.584;9.938;2023-09-12T06:57:33;111.03;;;54.77;;
3022;SDS011;1521;53.584;9.938;2023-09-12T06:59:59;109.93;;;53.87;;
3022;SDS011;1521;53.584;9.938;2023-09-12T07:02:24;103.10;;;52.93;;
3022;SDS011;1521;53.584;9.938;2023-09-12T07:04:51;88.07;;;50.63;;
3022;SDS011;1521;53.584;9.938;2023-09-12T07:07:17;94.47;;;49.60;;
3022;SDS011;1521;53.584;9.938;2023-09-12T07:09:42;93.50;;;49.17;;
3022;SDS011;1521;53.584;9.938;2023-09-12T07:12:08;89.20;;;48.03;;
3022;SDS011;1521;53.584;9.938;2023-09-12T07:14:34;77.90;;;48.20;;
3022;SDS011;1521;53.584;9.938;2023-09-12T07:17:02;85.70;;;49.90;;
3022;SDS011;1521;53.584;9.938;2023-09-12T07:19:29;88.77;;;48.53;;
3022;SDS011;1521;53.584;9.938;2023-09-12T07:21:54;77.33;;;45.30;;
3022;SDS011;1521;53.584;9.938;2023-09-12T07:24:20;90.97;;;49.10;;
3022;SDS011;1521;53.584;9.938;2023-09-12T07:26:50;76.43;;;44.93;;
3022;SDS011;1521;53.584;9.938;2023-09-12T07:29:16;88.80;;;49.70;;
3022;SDS011;1521;53.584;9.938;2023-09-12T07:31:41;94.80;;;52.10;;
3022;SDS011;1521;53.584;9.938;2023-09-12T07:34:07;85.43;;;49.33;;
3022;SDS011;1521;53.584;9.938;2023-09-12T07:36:33;86.17;;;50.43;;
3022;SDS011;1521;53.584;9.938;2023-09-12T07:38:58;83.30;;;50.93;;
3022;SDS011;1521;53.584;9.938;2023-09-12T07:41:24;90.50;;;49.57;;
3022;SDS011;1521;53.584;9.938;2023-09-12T07:43:50;84.07;;;46.33;;
3022;SDS011;1521;53.584;9.938;2023-09-12T07:46:16;100.80;;;58.43;;
3022;SDS011;1521;53.584;9.938;2023-09-12T07:48:47;84.37;;;50.03;;
3022;SDS011;1521;53.584;9.938;2023-09-12T07:51:16;73.70;;;46.10;;
3022;SDS011;1521;53.584;9.938;2023-09-12T07:53:43;75.20;;;44.20;;
3022;SDS011;1521;53.584;9.938;2023-09-12T07:56:09;82.30;;;46.23;;
3022;SDS011;1521;53.584;9.938;2023-09-12T07:58:37;77.47;;;45.43;;
3022;SDS011;1521;53.584;9.938;2023-09-12T08:01:06;68.23;;;44.17;;
3022;SDS011;1521;53.584;9.938;2023-09-12T08:03:36;70.30;;;42.47;;
3022;SDS011;1521;53.584;9.938;2023-09-12T08:06:04;67.50;;;44.30;;
3022;SDS011;1521;53.584;9.938;2023-09-12T08:08:30;62.93;;;41.53;;
3022;SDS011;1521;53.584;9.938;2023-09-12T08:10:56;74.60;;;43.27;;
3022;SDS011;1521;53.584;9.938;2023-09-12T08:13:22;68.83;;;43.37;;
3022;SDS011;1521;53.584;9.938;2023-09-12T08:15:50;61.80;;;42.30;;
3022;SDS011;1521;53.584;9.938;2023-09-12T08:18:16;58.53;;;37.40;;
3022;SDS011;1521;53.584;9.938;2023-09-12T08:20:42;59.90;;;42.20;;
3022;SDS011;1521;53.584;9.938;2023-09-12T08:23:08;65.97;;;43.60;;
3022;SDS011;1521;53.584;9.938;2023-09-12T08:25:34;54.63;;;38.27;;
3022;SDS011;1521;53.584;9.938;2023-09-12T08:27:59;64.60;;;42.77;;
3022;SDS011;1521;53.584;9.938;2023-09-12T08:30:25;57.67;;;38.60;;
3022;SDS011;1521;53.584;9.938;2023-09-12T08:32:50;47.13;;;33.33;;
3022;SDS011;1521;53.584;9.938;2023-09-12T08:35:16;56.80;;;37.00;;
3022;SDS011;1521;53.584;9.938;2023-09-12T08:37:42;50.67;;;34.70;;
3022;SDS011;1521;53.584;9.938;2023-09-12T08:40:08;56.40;;;35.03;;
3022;SDS011;1521;53.584;9.938;2023-09-12T08:42:41;50.40;;;34.20;;
3022;SDS011;1521;53.584;9.938;2023-09-12T08:45:12;38.20;;;29.40;;
3022;SDS011;1521;53.584;9.938;2023-09-12T08:47:39;44.70;;;31.83;;
3022;SDS011;1521;53.584;9.938;2023-09-12T08:50:07;42.53;;;31.93;;
3022;SDS011;1521;53.584;9.938;2023-09-12T08:52:36;39.43;;;30.40;;
3022;SDS011;1521;53.584;9.938;2023-09-12T08:55:01;34.10;;;27.20;;
3022;SDS011;1521;53.584;9.938;2023-09-12T08:57:28;32.00;;;26.10;;
3022;SDS011;1521;53.584;9.938;2023-09-12T08:59:58;34.00;;;26.80;;
3022;SDS011;1521;53.584;9.938;2023-09-12T09:02:30;34.67;;;25.90;;
3022;SDS011;1521;53.584;9.938;2023-09-12T09:04:57;37.53;;;26.00;;
3022;SDS011;1521;53.584;9.938;2023-09-12T09:07:25;39.43;;;28.20;;
3022;SDS011;1521;53.584;9.938;2023-09-12T09:09:52;37.13;;;27.53;;
3022;SDS011;1521;53.584;9.938;2023-09-12T09:12:18;36.73;;;27.73;;
3022;SDS011;1521;53.584;9.938;2023-09-12T09:14:44;34.80;;;26.00;;
3022;SDS011;1521;53.584;9.938;2023-09-12T09:17:10;35.10;;;27.60;;
3022;SDS011;1521;53.584;9.938;2023-09-12T09:19:41;37.43;;;27.27;;
3022;SDS011;1521;53.584;9.938;2023-09-12T09:22:08;38.50;;;26.00;;
3022;SDS011;1521;53.584;9.938;2023-09-12T09:24:33;38.67;;;27.03;;
3022;SDS011;1521;53.584;9.938;2023-09-12T09:26:59;36.50;;;27.40;;
3022;SDS011;1521;53.584;9.938;2023-09-12T09:29:26;30.53;;;24.57;;
3022;SDS011;1521;53.584;9.938;2023-09-12T09:31:56;33.17;;;25.63;;
3022;SDS011;1521;53.584;9.938;2023-09-12T09:34:24;36.03;;;28.10;;
3022;SDS011;1521;53.584;9.938;2023-09-12T09:36:50;36.53;;;25.60;;
3022;SDS011;1521;53.584;9.938;2023-09-12T09:39:17;37.70;;;26.07;;
3022;SDS011;1521;53.584;9.938;2023-09-12T09:41:47;32.93;;;24.80;;
3022;SDS011;1521;53.584;9.938;2023-09-12T09:44:14;36.23;;;27.47;;
3022;SDS011;1521;53.584;9.938;2023-09-12T09:46:42;36.63;;;26.43;;
3022;SDS011;1521;53.584;9.938;2023-09-12T09:49:10;36.63;;;27.80;;
3022;SDS011;1521;53.584;9.938;2023-09-12T09:51:42;34.97;;;26.10;;
3022;SDS011;1521;53.584;9.938;2023-09-12T09:54:08;33.07;;;25.60;;
3022;SDS011;1521;53.584;9.938;2023-09-12T09:56:44;38.67;;;28.70;;
3022;SDS011;1521;53.584;9.938;2023-09-12T09:59:14;32.60;;;23.93;;
3022;SDS011;1521;53.584;9.938;2023-09-12T10:01:45;33.40;;;24.30;;
3022;SDS011;1521;53.584;9.938;2023-09-12T10:04:11;31.57;;;23.57;;
3022;SDS011;1521;53.584;9.938;2023-09-12T10:06:37;30.23;;;23.87;;
3022;SDS011;1521;53.584;9.938;2023-09-12T10:09:13;31.03;;;23.73;;
3022;SDS011;1521;53.584;9.938;2023-09-12T10:11:41;29.83;;;23.50;;
3022;SDS011;1521;53.584;9.938;2023-09-12T10:14:08;32.87;;;23.60;;
3022;SDS011;1521;53.584;9.938;2023-09-12T10:16:35;28.97;;;21.83;;
3022;SDS011;1521;53.584;9.938;2023-09-12T10:19:47;34.20;;;25.20;;
3022;SDS011;1521;53.584;9.938;2023-09-12T10:22:18;36.13;;;24.70;;
3022;SDS011;1521;53.584;9.938;2023-09-12T10:24:49;32.37;;;25.50;;
3022;SDS011;1521;53.584;9.938;2023-09-12T10:27:15;29.60;;;23.60;;
3022;SDS011;1521;53.584;9.938;2023-09-12T10:29:43;35.67;;;25.47;;
3022;SDS011;1521;53.584;9.938;2023-09-12T10:32:12;40.00;;;29.90;;
3022;SDS011;1521;53.584;9.938;2023-09-12T10:34:39;37.23;;;29.27;;
3022;SDS011;1521;53.584;9.938;2023-09-12T10:37:09;40.53;;;29.97;;
3022;SDS011;1521;53.584;9.938;2023-09-12T10:39:37;35.10;;;25.80;;
3022;SDS011;1521;53.584;9.938;2023-09-12T10:42:04;37.00;;;27.20;;
3022;SDS011;1521;53.584;9.938;2023-09-12T10:44:30;39.93;;;29.87;;
3022;SDS011;1521;53.584;9.938;2023-09-12T10:46:57;38.17;;;29.57;;
3022;SDS011;1521;53.584;9.938;2023-09-12T10:49:23;44.13;;;28.90;;
3022;SDS011;1521;53.584;9.938;2023-09-12T10:51:49;47.13;;;31.40;;
3022;SDS011;1521;53.584;9.938;2023-09-12T10:54:15;42.77;;;30.77;;
3022;SDS011;1521;53.584;9.938;2023-09-12T10:57:01;42.67;;;30.13;;
3022;SDS011;1521;53.584;9.938;2023-09-12T10:59:31;42.13;;;30.50;;
3022;SDS011;1521;53.584;9.938;2023-09-12T11:04:55;37.77;;;28.70;;
3022;SDS011;1521;53.584;9.938;2023-09-12T11:12:43;44.33;;;29.50;;
3022;SDS011;1521;53.584;9.938;2023-09-12T11:15:17;37.37;;;29.20;;
3022;SDS011;1521;53.584;9.938;2023-09-12T11:17:45;40.00;;;30.60;;
3022;SDS011;1521;53.584;9.938;2023-09-12T11:20:12;37.57;;;28.80;;
3022;SDS011;1521;53.584;9.938;2023-09-12T11:25:15;38.27;;;30.50;;
3022;SDS011;1521;53.584;9.938;2023-09-12T11:28:01;38.70;;;30.40;;
3022;SDS011;1521;53.584;9.938;2023-09-12T11:30:31;43.00;;;32.83;;
3022;SDS011;1521;53.584;9.938;2023-09-12T11:32:57;45.73;;;32.30;;
3022;SDS011;1521;53.584;9.938;2023-09-12T11:35:26;46.53;;;35.13;;
3022;SDS011;1521;53.584;9.938;2023-09-12T11:37:54;45.13;;;33.07;;
3022;SDS011;1521;53.584;9.938;2023-09-12T11:42:58;47.23;;;35.40;;
3022;SDS011;1521;53.584;9.938;2023-09-12T11:45:24;45.43;;;33.67;;
3022;SDS011;1521;53.584;9.938;2023-09-12T11:47:50;52.23;;;39.20;;
3022;SDS011;1521;53.584;9.938;2023-09-12T11:50:28;47.80;;;36.27;;
3022;SDS011;1521;53.584;9.938;2023-09-12T11:53:08;54.67;;;37.07;;
3022;SDS011;1521;53.584;9.938;2023-09-12T11:55:42;47.30;;;35.20;;
3022;SDS011;1521;53.584;9.938;2023-09-12T11:58:12;46.20;;;34.20;;
3022;SDS011;1521;53.584;9.938;2023-09-12T12:00:46;43.73;;;31.30;;
3022;SDS011;1521;53.584;9.938;2023-09-12T12:03:13;46.43;;;34.70;;
3022;SDS011;1521;53.584;9.938;2023-09-12T12:05:39;48.97;;;34.00;;
3022;SDS011;1521;53.584;9.938;2023-09-12T12:08:07;44.00;;;32.10;;
3022;SDS011;1521;53.584;9.938;2023-09-12T12:10:33;40.47;;;31.10;;
3022;SDS011;1521;53.584;9.938;2023-09-12T12:12:59;35.63;;;29.73;;
3022;SDS011;1521;53.584;9.938;2023-09-12T12:15:27;33.57;;;27.13;;
3022;SDS011;1521;53.584;9.938;2023-09-12T12:17:56;33.47;;;25.20;;
3022;SDS011;1521;53.584;9.938;2023-09-12T12:20:22;34.17;;;26.67;;
3022;SDS011;1521;53.584;9.938;2023-09-12T12:22:48;34.00;;;25.07;;
3022;SDS011;1521;53.584;9.938;2023-09-12T12:25:14;28.10;;;23.80;;
3022;SDS011;1521;53.584;9.938;2023-09-12T12:27:41;32.80;;;26.60;;
3022;SDS011;1521;53.584;9.938;2023-09-12T12:30:07;30.97;;;24.83;;
3022;SDS011;1521;53.584;9.938;2023-09-12T12:32:36;27.73;;;22.67;;
3022;SDS011;1521;53.584;9.938;2023-09-12T12:35:05;26.50;;;22.50;;
3022;SDS011;1521;53.584;9.938;2023-09-12T12:37:32;30.20;;;23.47;;
3022;SDS011;1521;53.584;9.938;2023-09-12T12:39:58;28.60;;;23.97;;
3022;SDS011;1521;53.584;9.938;2023-09-12T12:42:25;29.50;;;24.10;;
3022;SDS011;1521;53.584;9.938;2023-09-12T12:45:13;28.00;;;23.00;;
3022;SDS011;1521;53.584;9.938;2023-09-12T12:47:44;28.20;;;23.10;;
3022;SDS011;1521;53.584;9.938;2023-09-12T12:50:13;29.27;;;22.97;;
3022;SDS011;1521;53.584;9.938;2023-09-12T12:52:45;31.37;;;23.20;;
3022;SDS011;1521;53.584;9.938;2023-09-12T12:55:12;26.77;;;22.67;;
3022;SDS011;1521;53.584;9.938;2023-09-12T12:57:39;32.00;;;24.20;;
3022;SDS011;1521;53.584;9.938;2023-09-12T13:00:16;27.17;;;22.83;;
3022;SDS011;1521;53.584;9.938;2023-09-12T13:02:44;28.63;;;23.77;;
3022;SDS011;1521;53.584;9.938;2023-09-12T13:05:26;26.20;;;22.27;;
3022;SDS011;1521;53.584;9.938;2023-09-12T13:07:55;24.90;;;21.53;;
3022;SDS011;1521;53.584;9.938;2023-09-12T13:10:21;28.00;;;22.50;;
3022;SDS011;1521;53.584;9.938;2023-09-12T13:12:48;29.30;;;24.27;;
3022;SDS011;1521;53.584;9.938;2023-09-12T13:15:14;27.13;;;23.00;;
3022;SDS011;1521;53.584;9.938;2023-09-12T13:17:41;31.47;;;23.63;;
3022;SDS011;1521;53.584;9.938;2023-09-12T13:20:07;28.63;;;21.23;;
3022;SDS011;1521;53.584;9.938;2023-09-12T13:22:33;23.33;;;20.53;;
3022;SDS011;1521;53.584;9.938;2023-09-12T13:24:59;22.87;;;20.23;;
3022;SDS011;1521;53.584;9.938;2023-09-12T13:27:25;24.20;;;20.97;;
3022;SDS011;1521;53.584;9.938;2023-09-12T13:29:51;27.90;;;22.20;;
3022;SDS011;1521;53.584;9.938;2023-09-12T13:32:16;25.13;;;21.90;;
3022;SDS011;1521;53.584;9.938;2023-09-12T13:34:43;28.07;;;23.97;;
3022;SDS011;1521;53.584;9.938;2023-09-12T13:37:09;25.23;;;21.47;;
3022;SDS011;1521;53.584;9.938;2023-09-12T13:39:35;32.57;;;25.57;;
3022;SDS011;1521;53.584;9.938;2023-09-12T13:42:01;26.73;;;22.20;;
3022;SDS011;1521;53.584;9.938;2023-09-12T13:44:28;26.40;;;21.70;;
3022;SDS011;1521;53.584;9.938;2023-09-12T13:46:54;25.17;;;21.80;;
3022;SDS011;1521;53.584;9.938;2023-09-12T13:49:19;25.77;;;20.30;;
3022;SDS011;1521;53.584;9.938;2023-09-12T13:51:45;22.97;;;20.50;;
3022;SDS011;1521;53.584;9.938;2023-09-12T13:54:10;29.20;;;24.40;;
3022;SDS011;1521;53.584;9.938;2023-09-12T13:56:40;26.23;;;23.23;;
3022;SDS011;1521;53.584;9.938;2023-09-12T13:59:06;26.40;;;22.97;;
3022;SDS011;1521;53.584;9.938;2023-09-12T14:01:31;28.93;;;22.30;;
3022;SDS011;1521;53.584;9.938;2023-09-12T14:03:57;27.33;;;23.10;;
3022;SDS011;1521;53.584;9.938;2023-09-12T14:06:23;23.33;;;20.83;;
3022;SDS011;1521;53.584;9.938;2023-09-12T14:08:48;27.43;;;22.77;;
3022;SDS011;1521;53.584;9.938;2023-09-12T14:11:14;25.70;;;21.53;;
3022;SDS011;1521;53.584;9.938;2023-09-12T14:13:39;27.60;;;22.50;;
3022;SDS011;1521;53.584;9.938;2023-09-12T14:16:05;24.57;;;20.80;;
3022;SDS011;1521;53.584;9.938;2023-09-12T14:18:31;24.40;;;20.10;;
3022;SDS011;1521;53.584;9.938;2023-09-12T14:20:57;25.97;;;20.83;;
3022;SDS011;1521;53.584;9.938;2023-09-12T14:23:22;21.40;;;19.00;;
3022;SDS011;1521;53.584;9.938;2023-09-12T14:25:48;24.20;;;21.57;;
3022;SDS011;1521;53.584;9.938;2023-09-12T14:28:14;23.43;;;20.93;;
3022;SDS011;1521;53.584;9.938;2023-09-12T14:30:39;22.43;;;20.00;;
3022;SDS011;1521;53.584;9.938;2023-09-12T14:33:09;22.93;;;20.30;;
3022;SDS011;1521;53.584;9.938;2023-09-12T14:35:35;24.00;;;20.43;;
3022;SDS011;1521;53.584;9.938;2023-09-12T14:38:01;22.43;;;20.00;;
3022;SDS011;1521;53.584;9.938;2023-09-12T14:40:27;24.53;;;21.83;;
3022;SDS011;1521;53.584;9.938;2023-09-12T14:42:53;24.57;;;20.40;;
3022;SDS011;1521;53.584;9.938;2023-09-12T14:45:19;24.17;;;21.63;;
3022;SDS011;1521;53.584;9.938;2023-09-12T14:47:44;26.13;;;22.03;;
3022;SDS011;1521;53.584;9.938;2023-09-12T14:50:10;23.27;;;20.30;;
3022;SDS011;1521;53.584;9.938;2023-09-12T14:52:36;22.60;;;20.17;;
3022;SDS011;1521;53.584;9.938;2023-09-12T14:55:03;22.90;;;20.30;;
3022;SDS011;1521;53.584;9.938;2023-09-12T14:57:29;24.93;;;22.07;;
3022;SDS011;1521;53.584;9.938;2023-09-12T14:59:55;26.03;;;22.07;;
3022;SDS011;1521;53.584;9.938;2023-09-12T15:02:22;27.20;;;22.50;;